createdAt,value
2023-04-09T00:00:25.752Z,99120.34
2023-04-09T00:03:34.567Z,99110.81
2023-04-09T00:06:36.295Z,99111.53
2023-04-09T00:09:37.858Z,99105.31
2023-04-09T00:12:39.553Z,99104.44
2023-04-09T00:15:41.189Z,99101.75
2023-04-09T00:18:42.780Z,99104.19
2023-04-09T00:21:44.383Z,99091.97
2023-04-09T00:24:46.168Z,99089.19
2023-04-09T00:27:50.483Z,99082.16
2023-04-09T00:30:52.150Z,99078.56
2023-04-09T00:33:53.681Z,99071.66
2023-04-09T00:36:55.353Z,99072.38
2023-04-09T00:39:56.848Z,99071.84
2023-04-09T00:42:58.418Z,99070.97
2023-04-09T00:46:00.944Z,99074.34
2023-04-09T00:49:03.165Z,99074.94
2023-04-09T00:52:04.872Z,99074.50
2023-04-09T00:55:06.803Z,99073.38
2023-04-09T00:58:08.407Z,99064.81
2023-04-09T01:01:10.006Z,99065.59
2023-04-09T01:04:11.558Z,99065.53
2023-04-09T01:07:35.841Z,99070.38
2023-04-09T01:10:40.445Z,99063.31
2023-04-09T01:13:49.375Z,99065.03
2023-04-09T01:16:53.594Z,99047.78
2023-04-09T01:20:06.720Z,99041.03
2023-04-09T01:23:11.227Z,99046.56
2023-04-09T01:26:50.467Z,99045.78
2023-04-09T01:29:52.045Z,99044.91
2023-04-09T01:32:53.666Z,99034.16
2023-04-09T01:35:55.385Z,99036.53
2023-04-09T01:38:57.116Z,99028.44
2023-04-09T01:41:58.808Z,99034.16
2023-04-09T01:45:00.501Z,99032.97
2023-04-09T01:48:02.104Z,99034.53
2023-04-09T01:51:03.914Z,99037.84
2023-04-09T01:54:05.741Z,99036.91
2023-04-09T01:57:07.268Z,99030.69
2023-04-09T02:00:09.485Z,99038.91
2023-04-09T02:03:17.157Z,99041.56
2023-04-09T02:06:31.160Z,99034.38
2023-04-09T02:09:33.273Z,99035.94
2023-04-09T02:12:36.511Z,99038.22
2023-04-09T02:15:38.042Z,99036.13
2023-04-09T02:18:39.648Z,99044.25
2023-04-09T02:21:41.214Z,99039.94
2023-04-09T02:24:42.732Z,99041.53
2023-04-09T02:27:44.258Z,99033.88
2023-04-09T02:30:45.881Z,99034.41
2023-04-09T02:33:47.540Z,99038.66
2023-04-09T02:36:49.099Z,99037.69
2023-04-09T02:39:50.700Z,99036.44
2023-04-09T02:42:52.818Z,99036.19
2023-04-09T02:45:54.549Z,99028.97
2023-04-09T02:48:56.192Z,99029.59
2023-04-09T02:51:57.719Z,99027.53
2023-04-09T02:54:59.298Z,99023.13
2023-04-09T02:58:01.079Z,99023.13
2023-04-09T03:01:02.680Z,99023.22
2023-04-09T03:04:04.343Z,99015.25
2023-04-09T03:07:06.001Z,99009.09
2023-04-09T03:10:07.881Z,99011.59
2023-04-09T03:13:09.497Z,99009.16
2023-04-09T03:16:11.177Z,99006.75
2023-04-09T03:19:12.758Z,99002.31
2023-04-09T03:22:14.379Z,99007.09
2023-04-09T03:25:16.122Z,99011.09
2023-04-09T03:28:17.746Z,99000.69
2023-04-09T03:31:19.425Z,98999.59
2023-04-09T03:34:21.016Z,98993.41
2023-04-09T03:37:22.678Z,99000.03
2023-04-09T03:40:24.349Z,98999.94
2023-04-09T03:43:25.871Z,98999.78
2023-04-09T03:46:27.465Z,98990.94
2023-04-09T03:49:28.964Z,98992.69
2023-04-09T03:52:30.509Z,98993.34
2023-04-09T03:55:32.020Z,98992.28
2023-04-09T03:58:33.753Z,98985.06
2023-04-09T04:01:35.388Z,98992.44
2023-04-09T04:04:37.039Z,98989.88
2023-04-09T04:07:38.636Z,98988.00
2023-04-09T04:10:40.287Z,98984.72
2023-04-09T04:13:41.810Z,98988.25
2023-04-09T04:16:43.436Z,98991.47
2023-04-09T04:19:45.233Z,98998.25
2023-04-09T04:22:46.787Z,98999.81
2023-04-09T04:25:48.301Z,98999.69
2023-04-09T04:28:49.920Z,98994.28
2023-04-09T04:31:51.647Z,98992.59
2023-04-09T04:34:53.355Z,98996.69
2023-04-09T04:37:57.602Z,98995.03
2023-04-09T04:40:59.376Z,98992.47
2023-04-09T04:44:00.953Z,98991.06
2023-04-09T04:47:02.470Z,98985.00
2023-04-09T04:50:04.325Z,98985.03
2023-04-09T04:53:06.069Z,98989.03
2023-04-09T04:56:07.865Z,98987.28
2023-04-09T04:59:09.416Z,99002.72
2023-04-09T05:02:11.081Z,99003.59
2023-04-09T05:05:12.675Z,99003.72
2023-04-09T05:08:14.438Z,99009.56
2023-04-09T05:11:16.959Z,99003.34
2023-04-09T05:14:18.946Z,99006.56
2023-04-09T05:17:20.586Z,99012.13
2023-04-09T05:20:22.216Z,99010.44
2023-04-09T05:23:23.827Z,99012.34
2023-04-09T05:26:25.441Z,99017.50
2023-04-09T05:29:27.012Z,99013.41
2023-04-09T05:32:28.524Z,99020.31
2023-04-09T05:35:30.116Z,99020.84
2023-04-09T05:38:31.706Z,99015.19
2023-04-09T05:41:33.666Z,99018.28
2023-04-09T05:44:35.562Z,99012.34
2023-04-09T05:47:37.143Z,99014.53
2023-04-09T05:50:53.373Z,99014.78
2023-04-09T05:53:55.862Z,99015.63
2023-04-09T05:56:57.386Z,99009.22
2023-04-09T05:59:59.005Z,99017.84
2023-04-09T06:03:00.648Z,99011.56
2023-04-09T06:06:02.253Z,99018.66
2023-04-09T06:09:04.534Z,99020.97
2023-04-09T06:12:06.069Z,99025.72
2023-04-09T06:15:07.735Z,99025.09
2023-04-09T06:18:09.368Z,99026.34
2023-04-09T06:21:10.980Z,99026.03
2023-04-09T06:24:12.772Z,99022.84
2023-04-09T06:27:14.328Z,99028.22
2023-04-09T06:30:15.914Z,99037.13
2023-04-09T06:33:17.492Z,99036.66
2023-04-09T06:36:20.168Z,99029.50
2023-04-09T06:39:21.593Z,99039.53
2023-04-09T06:42:23.117Z,99038.16
2023-04-09T06:45:24.745Z,99042.91
2023-04-09T06:48:26.320Z,99038.16
2023-04-09T06:51:27.914Z,99041.00
2023-04-09T06:54:29.526Z,99050.53
2023-04-09T06:57:31.179Z,99051.75
2023-04-09T07:00:32.741Z,99061.63
2023-04-09T07:03:34.577Z,99061.97
2023-04-09T07:06:36.285Z,99068.34
2023-04-09T07:09:37.802Z,99072.75
2023-04-09T07:12:39.372Z,99073.88
2023-04-09T07:15:42.496Z,99080.16
2023-04-09T07:18:44.489Z,99086.69
2023-04-09T07:21:46.010Z,99104.72
2023-04-09T07:24:53.423Z,99106.31
2023-04-09T07:27:54.940Z,99114.38
2023-04-09T07:30:56.552Z,99133.13
2023-04-09T07:33:58.194Z,99138.88
2023-04-09T07:36:59.809Z,99149.78
2023-04-09T07:40:01.680Z,99170.28
2023-04-09T07:43:03.878Z,99172.44
2023-04-09T07:46:06.981Z,99178.25
2023-04-09T07:49:08.569Z,99189.03
2023-04-09T07:52:10.133Z,99196.31
2023-04-09T07:55:11.673Z,99206.13
2023-04-09T07:58:13.224Z,99210.84
2023-04-09T08:01:15.308Z,99216.38
2023-04-09T08:04:17.300Z,99224.66
2023-04-09T08:07:18.938Z,99230.28
2023-04-09T08:10:20.604Z,99227.06
2023-04-09T08:13:24.300Z,99231.47
2023-04-09T08:16:25.947Z,99233.97
2023-04-09T08:19:27.514Z,99232.63
2023-04-09T08:22:29.120Z,99229.19
2023-04-09T08:25:30.962Z,99232.69
2023-04-09T08:28:32.660Z,99222.25
2023-04-09T08:31:34.503Z,99230.94
2023-04-09T08:34:36.120Z,99229.22
2023-04-09T08:37:37.724Z,99226.63
2023-04-09T08:40:39.416Z,99220.50
2023-04-09T08:43:53.109Z,99227.34
2023-04-09T08:46:59.772Z,99225.53
2023-04-09T08:50:01.357Z,99223.00
2023-04-09T08:53:03.777Z,99219.41
2023-04-09T08:56:05.815Z,99224.88
2023-04-09T08:59:07.386Z,99219.59
2023-04-09T09:02:10.759Z,99217.66
2023-04-09T09:05:13.579Z,99220.47
2023-04-09T09:08:23.691Z,99215.31
2023-04-09T09:11:29.040Z,99215.94
2023-04-09T09:14:31.844Z,99214.34
2023-04-09T09:17:34.397Z,99221.69
2023-04-09T09:20:35.987Z,99206.44
2023-04-09T09:23:38.387Z,99210.63
2023-04-09T09:26:39.983Z,99203.19
2023-04-09T09:29:45.170Z,99227.31
2023-04-09T09:32:46.835Z,99214.47
2023-04-09T09:35:54.122Z,99206.47
2023-04-09T09:38:57.325Z,99226.28
2023-04-09T09:42:07.518Z,99212.81
2023-04-09T09:45:19.371Z,99210.34
2023-04-09T09:48:21.986Z,99224.44
2023-04-09T09:51:27.250Z,99225.66
2023-04-09T09:54:29.424Z,99222.22
2023-04-09T09:57:33.829Z,99225.66
2023-04-09T10:00:35.722Z,99223.78
2023-04-09T10:03:40.533Z,99222.94
2023-04-09T10:06:45.218Z,99217.03
2023-04-09T10:09:49.835Z,99231.00
2023-04-09T10:12:51.555Z,99218.78
2023-04-09T10:15:53.434Z,99225.22
2023-04-09T10:19:00.480Z,99217.50
2023-04-09T10:22:12.249Z,99214.00
2023-04-09T10:25:13.898Z,99216.88
2023-04-09T10:28:18.603Z,99205.53
2023-04-09T10:31:20.295Z,99212.59
2023-04-09T10:34:23.597Z,99215.25
2023-04-09T10:37:26.161Z,99223.78
2023-04-09T10:40:28.929Z,99218.69
2023-04-09T10:43:30.637Z,99221.41
2023-04-09T10:46:36.550Z,99212.63
2023-04-09T10:49:39.309Z,99224.03
2023-04-09T10:52:41.772Z,99215.84
2023-04-09T10:55:44.526Z,99199.88
2023-04-09T10:58:46.170Z,99200.94
2023-04-09T11:01:54.789Z,99201.09
2023-04-09T11:05:20.227Z,99204.47
2023-04-09T11:08:22.324Z,99193.22
2023-04-09T11:11:26.876Z,99204.78
2023-04-09T11:14:28.408Z,99200.44
2023-04-09T11:17:30.235Z,99202.19
2023-04-09T11:20:31.970Z,99197.78
2023-04-09T11:23:33.880Z,99202.34
2023-04-09T11:26:36.184Z,99179.28
2023-04-09T11:29:39.204Z,99186.66
2023-04-09T11:32:41.019Z,99189.44
2023-04-09T11:35:42.858Z,99188.38
2023-04-09T11:38:44.436Z,99193.97
2023-04-09T11:41:47.073Z,99187.97
2023-04-09T11:44:49.888Z,99192.38
2023-04-09T11:47:51.670Z,99182.84
2023-04-09T11:50:53.756Z,99186.44
2023-04-09T11:53:55.359Z,99190.81
2023-04-09T11:56:59.235Z,99186.47
2023-04-09T12:00:31.092Z,99190.63
2023-04-09T12:03:33.681Z,99189.91
2023-04-09T12:06:40.316Z,99195.13
2023-04-09T12:09:51.195Z,99202.13
2023-04-09T12:12:52.852Z,99188.00
2023-04-09T12:15:57.505Z,99181.66
2023-04-09T12:19:04.393Z,99182.56
2023-04-09T12:22:06.344Z,99175.66
2023-04-09T12:25:20.285Z,99182.53
2023-04-09T12:28:21.803Z,99186.09
2023-04-09T12:31:23.476Z,99180.00
2023-04-09T12:34:27.303Z,99186.06
2023-04-09T12:37:28.970Z,99184.59
2023-04-09T12:40:30.540Z,99180.44
2023-04-09T12:43:32.126Z,99175.91
2023-04-09T12:46:33.854Z,99185.28
2023-04-09T12:49:35.518Z,99186.16
2023-04-09T12:52:40.196Z,99169.78
2023-04-09T12:55:43.010Z,99177.72
2023-04-09T12:58:52.725Z,99176.03
2023-04-09T13:01:57.331Z,99181.69
2023-04-09T13:04:59.010Z,99180.84
2023-04-09T13:08:00.563Z,99168.84
2023-04-09T13:11:02.094Z,99172.22
2023-04-09T13:14:03.756Z,99176.78
2023-04-09T13:17:05.732Z,99169.91
2023-04-09T13:20:08.267Z,99166.69
2023-04-09T13:23:09.956Z,99161.94
2023-04-09T13:26:11.668Z,99162.75
2023-04-09T13:29:13.350Z,99151.91
2023-04-09T13:32:14.932Z,99151.41
2023-04-09T13:35:16.582Z,99155.44
2023-04-09T13:38:18.506Z,99156.56
2023-04-09T13:41:20.195Z,99154.09
2023-04-09T13:44:22.167Z,99143.53
2023-04-09T13:47:24.066Z,99138.66
2023-04-09T13:50:26.508Z,99142.44
2023-04-09T13:53:28.122Z,99142.72
2023-04-09T13:56:30.867Z,99135.88
2023-04-09T13:59:32.579Z,99134.59
2023-04-09T14:02:34.377Z,99135.38
2023-04-09T14:05:36.153Z,99123.94
2023-04-09T14:08:37.696Z,99116.72
2023-04-09T14:11:39.311Z,99105.47
2023-04-09T14:14:43.289Z,99102.16
2023-04-09T14:17:45.174Z,99098.75
2023-04-09T14:20:46.958Z,99088.78
2023-04-09T14:23:48.658Z,99078.78
2023-04-09T14:26:53.670Z,99074.25
2023-04-09T14:29:55.657Z,99083.50
2023-04-09T14:33:00.123Z,99075.16
2023-04-09T14:36:01.762Z,99071.63
2023-04-09T14:39:03.398Z,99069.63
2023-04-09T14:42:04.996Z,99071.88
2023-04-09T14:45:07.171Z,99070.75
2023-04-09T14:48:08.764Z,99071.00
2023-04-09T14:51:10.938Z,99081.50
2023-04-09T14:54:12.567Z,99070.81
2023-04-09T14:57:14.149Z,99069.13
2023-04-09T15:00:15.927Z,99076.09
2023-04-09T15:03:17.904Z,99063.69
2023-04-09T15:06:19.921Z,99061.81
2023-04-09T15:09:21.545Z,99067.28
2023-04-09T15:12:23.026Z,99070.59
2023-04-09T15:15:24.700Z,99063.47
2023-04-09T15:18:26.384Z,99065.31
2023-04-09T15:21:29.656Z,99061.88
2023-04-09T15:24:31.428Z,99059.91
2023-04-09T15:27:33.094Z,99053.63
2023-04-09T15:30:35.942Z,99052.81
2023-04-09T15:33:42.400Z,99054.72
2023-04-09T15:36:45.530Z,99037.00
2023-04-09T15:39:47.214Z,99051.78
2023-04-09T15:42:48.818Z,99056.41
2023-04-09T15:45:51.039Z,99055.63
2023-04-09T15:48:53.025Z,99056.81
2023-04-09T15:51:54.641Z,99039.09
2023-04-09T15:54:56.517Z,99042.97
2023-04-09T15:57:58.036Z,99039.25
2023-04-09T16:01:06.674Z,99040.06
2023-04-09T16:04:09.416Z,99051.72
2023-04-09T16:07:11.182Z,99045.63
2023-04-09T16:10:14.679Z,99043.75
2023-04-09T16:13:16.682Z,99039.25
2023-04-09T16:16:18.730Z,99036.72
2023-04-09T16:19:21.297Z,99038.97
2023-04-09T16:22:22.853Z,99039.19
2023-04-09T16:25:24.568Z,99046.22
2023-04-09T16:28:27.041Z,99040.84
2023-04-09T16:31:28.612Z,99038.34
2023-04-09T16:34:31.952Z,99034.81
2023-04-09T16:37:35.057Z,99042.34
2023-04-09T16:40:36.624Z,99037.75
2023-04-09T16:43:38.205Z,99035.03
2023-04-09T16:46:39.853Z,99034.88
2023-04-09T16:49:41.452Z,99033.09
2023-04-09T16:52:44.101Z,99034.81
2023-04-09T16:55:45.756Z,99030.66
2023-04-09T16:58:47.904Z,99036.84
2023-04-09T17:01:49.391Z,99029.94
2023-04-09T17:04:51.615Z,99033.34
2023-04-09T17:07:53.641Z,99031.50
2023-04-09T17:11:01.934Z,99043.09
2023-04-09T17:14:04.194Z,99044.09
2023-04-09T17:17:05.575Z,99040.47
2023-04-09T17:20:07.643Z,99035.31
2023-04-09T17:23:09.157Z,99036.38
2023-04-09T17:26:10.985Z,99045.16
2023-04-09T17:29:13.191Z,99041.78
2023-04-09T17:32:14.601Z,99044.59
2023-04-09T17:35:21.254Z,99044.88
2023-04-09T17:38:25.096Z,99050.13
2023-04-09T17:41:27.778Z,99051.94
2023-04-09T17:44:31.360Z,99052.00
2023-04-09T17:47:33.182Z,99045.09
2023-04-09T17:50:37.532Z,99046.97
2023-04-09T17:53:39.155Z,99048.72
2023-04-09T17:56:40.865Z,99046.91
2023-04-09T17:59:42.480Z,99038.97
2023-04-09T18:02:52.902Z,99051.09
2023-04-09T18:05:54.854Z,99050.94
2023-04-09T18:08:56.494Z,99054.41
2023-04-09T18:12:00.043Z,99071.84
2023-04-09T18:15:04.432Z,99070.94
2023-04-09T18:18:06.071Z,99081.25
2023-04-09T18:21:08.132Z,99077.78
2023-04-09T18:24:09.705Z,99077.69
2023-04-09T18:27:11.264Z,99089.78
2023-04-09T18:30:13.004Z,99082.63
2023-04-09T18:33:14.684Z,99086.88
2023-04-09T18:36:16.405Z,99088.38
2023-04-09T18:39:21.060Z,99088.38
2023-04-09T18:42:22.635Z,99100.41
2023-04-09T18:45:24.270Z,99089.84
2023-04-09T18:48:25.993Z,99093.31
2023-04-09T18:51:27.904Z,99101.94
2023-04-09T18:54:29.440Z,99096.53
2023-04-09T18:57:37.096Z,99097.25
2023-04-09T19:00:39.752Z,99103.31
2023-04-09T19:03:43.109Z,99101.31
2023-04-09T19:06:47.461Z,99108.16
2023-04-09T19:09:48.968Z,99103.84
2023-04-09T19:12:53.784Z,99106.41
2023-04-09T19:15:57.049Z,99107.13
2023-04-09T19:19:01.197Z,99108.91
2023-04-09T19:22:02.874Z,99103.41
2023-04-09T19:25:04.909Z,99103.22
2023-04-09T19:28:06.446Z,99100.56
2023-04-09T19:31:08.100Z,99097.03
2023-04-09T19:34:11.159Z,99102.94
2023-04-09T19:37:15.075Z,99106.19
2023-04-09T19:40:17.993Z,99109.31
2023-04-09T19:43:19.520Z,99107.34
2023-04-09T19:46:21.207Z,99108.94
2023-04-09T19:49:22.841Z,99113.34
2023-04-09T19:52:24.899Z,99105.41
2023-04-09T19:55:29.311Z,99109.44
2023-04-09T19:58:32.701Z,99108.94
2023-04-09T20:01:34.420Z,99107.19
2023-04-09T20:04:36.197Z,99100.91
2023-04-09T20:07:38.495Z,99105.91
2023-04-09T20:10:41.661Z,99105.81
2023-04-09T20:13:43.289Z,99109.28
2023-04-09T20:16:44.885Z,99102.19
2023-04-09T20:19:46.627Z,99107.78
2023-04-09T20:22:55.709Z,99096.22
2023-04-09T20:25:58.084Z,99097.66
2023-04-09T20:28:59.600Z,99093.91
2023-04-09T20:32:01.339Z,99093.69
2023-04-09T20:35:05.067Z,99085.28
2023-04-09T20:38:09.377Z,99087.97
2023-04-09T20:41:11.344Z,99088.94
2023-04-09T20:44:13.045Z,99086.91
2023-04-09T20:47:15.564Z,99085.97
2023-04-09T20:50:17.460Z,99091.16
2023-04-09T20:53:19.167Z,99079.63
2023-04-09T20:56:20.734Z,99081.78
2023-04-09T20:59:23.792Z,99080.34
2023-04-09T21:02:25.654Z,99070.63
2023-04-09T21:05:28.779Z,99066.03
2023-04-09T21:08:30.610Z,99070.25
2023-04-09T21:11:32.147Z,99068.28
2023-04-09T21:14:36.690Z,99076.97
2023-04-09T21:17:38.296Z,99076.19
2023-04-09T21:20:46.186Z,99074.72
2023-04-09T21:23:47.793Z,99082.72
2023-04-09T21:26:51.982Z,99085.03
2023-04-09T21:29:54.575Z,99082.19
2023-04-09T21:32:56.455Z,99076.97
2023-04-09T21:35:58.106Z,99087.28
2023-04-09T21:38:59.744Z,99077.56
2023-04-09T21:42:02.754Z,99072.19
2023-04-09T21:45:04.727Z,99079.38
2023-04-09T21:48:09.267Z,99063.41
2023-04-09T21:51:11.458Z,99067.47
2023-04-09T21:54:12.995Z,99055.44
2023-04-09T21:57:14.811Z,99055.44
2023-04-09T22:00:16.488Z,99053.38
2023-04-09T22:03:18.265Z,99052.66
2023-04-09T22:06:23.119Z,99047.03
2023-04-09T22:09:24.776Z,99050.44
2023-04-09T22:12:26.617Z,99047.06
2023-04-09T22:15:28.284Z,99049.38
2023-04-09T22:18:38.855Z,99058.72
2023-04-09T22:21:41.391Z,99056.09
2023-04-09T22:24:45.583Z,99046.19
2023-04-09T22:27:53.563Z,99055.53
2023-04-09T22:30:58.534Z,99059.47
2023-04-09T22:34:10.074Z,99066.47
2023-04-09T22:37:19.155Z,99077.84
2023-04-09T22:40:20.758Z,99075.94
2023-04-09T22:43:25.453Z,99076.13
2023-04-09T22:46:27.021Z,99080.00
2023-04-09T22:49:31.582Z,99072.03
2023-04-09T22:52:33.258Z,99070.09
2023-04-09T22:55:34.829Z,99074.13
2023-04-09T22:58:36.547Z,99067.69
2023-04-09T23:01:38.207Z,99061.00
2023-04-09T23:04:39.848Z,99064.56
2023-04-09T23:07:42.689Z,99059.50
2023-04-09T23:10:44.291Z,99060.34
2023-04-09T23:13:45.896Z,99067.38
2023-04-09T23:16:47.405Z,99058.44
2023-04-09T23:19:49.110Z,99062.56
2023-04-09T23:22:50.887Z,99056.38
2023-04-09T23:25:52.596Z,99053.66
2023-04-09T23:28:54.349Z,99060.53
2023-04-09T23:31:56.106Z,99057.31
2023-04-09T23:34:58.964Z,99053.59
2023-04-09T23:38:00.865Z,99055.63
2023-04-09T23:41:02.416Z,99062.56
2023-04-09T23:44:04.097Z,99051.34
2023-04-09T23:47:06.580Z,99057.00
2023-04-09T23:50:08.682Z,99044.28
2023-04-09T23:53:10.963Z,99038.66
2023-04-09T23:56:14.138Z,99031.09
2023-04-09T23:59:15.793Z,99031.97
